sensor_id;sensor_type;location;lat;lon;timestamp;P1;durP1;ratioP1;P2;durP2;ratioP2
75261;SDS011;63859;51.064;4.580;2023-06-22T00:00:39;8.00;;;4.68;;
75261;SDS011;63859;51.064;4.580;2023-06-22T00:03:07;5.97;;;4.30;;
75261;SDS011;63859;51.064;4.580;2023-06-22T00:05:33;6.50;;;4.45;;
75261;SDS011;63859;51.064;4.580;2023-06-22T00:08:01;6.60;;;4.38;;
75261;SDS011;63859;51.064;4.580;2023-06-22T00:10:28;7.65;;;4.45;;
75261;SDS011;63859;51.064;4.580;2023-06-22T00:12:54;5.82;;;4.57;;
75261;SDS011;63859;51.064;4.580;2023-06-22T00:15:19;5.97;;;4.55;;
75261;SDS011;63859;51.064;4.580;2023-06-22T00:17:45;5.53;;;3.95;;
75261;SDS011;63859;51.064;4.580;2023-06-22T00:20:11;7.80;;;4.13;;
75261;SDS011;63859;51.064;4.580;2023-06-22T00:22:36;7.10;;;4.32;;
75261;SDS011;63859;51.064;4.580;2023-06-22T00:25:05;5.95;;;4.07;;
75261;SDS011;63859;51.064;4.580;2023-06-22T00:27:32;4.65;;;3.72;;
75261;SDS011;63859;51.064;4.580;2023-06-22T00:29:58;9.45;;;4.45;;
75261;SDS011;63859;51.064;4.580;2023-06-22T00:32:24;6.72;;;4.20;;
75261;SDS011;63859;51.064;4.580;2023-06-22T00:34:50;8.85;;;4.90;;
75261;SDS011;63859;51.064;4.580;2023-06-22T00:37:16;6.32;;;4.57;;
75261;SDS011;63859;51.064;4.580;2023-06-22T00:39:42;6.18;;;4.38;;
75261;SDS011;63859;51.064;4.580;2023-06-22T00:42:08;8.57;;;4.90;;
75261;SDS011;63859;51.064;4.580;2023-06-22T00:44:34;6.50;;;4.30;;
75261;SDS011;63859;51.064;4.580;2023-06-22T00:47:01;7.50;;;4.25;;
75261;SDS011;63859;51.064;4.580;2023-06-22T00:49:27;5.63;;;4.47;;
75261;SDS011;63859;51.064;4.580;2023-06-22T00:51:53;8.77;;;4.63;;
75261;SDS011;63859;51.064;4.580;2023-06-22T00:54:19;8.07;;;4.60;;
75261;SDS011;63859;51.064;4.580;2023-06-22T00:56:55;6.85;;;4.80;;
75261;SDS011;63859;51.064;4.580;2023-06-22T01:01:48;6.72;;;4.68;;
75261;SDS011;63859;51.064;4.580;2023-06-22T01:04:15;6.10;;;4.13;;
75261;SDS011;63859;51.064;4.580;2023-06-22T01:09:59;7.15;;;4.22;;
75261;SDS011;63859;51.064;4.580;2023-06-22T01:12:26;6.63;;;4.40;;
75261;SDS011;63859;51.064;4.580;2023-06-22T01:15:02;5.53;;;4.28;;
75261;SDS011;63859;51.064;4.580;2023-06-22T01:17:35;7.72;;;4.22;;
75261;SDS011;63859;51.064;4.580;2023-06-22T01:20:05;6.93;;;4.45;;
75261;SDS011;63859;51.064;4.580;2023-06-22T01:22:36;7.15;;;4.22;;
75261;SDS011;63859;51.064;4.580;2023-06-22T01:25:28;5.72;;;4.43;;
75261;SDS011;63859;51.064;4.580;2023-06-22T01:30:51;7.88;;;4.82;;
75261;SDS011;63859;51.064;4.580;2023-06-22T01:33:31;7.47;;;4.63;;
75261;SDS011;63859;51.064;4.580;2023-06-22T01:36:00;10.48;;;4.80;;
75261;SDS011;63859;51.064;4.580;2023-06-22T01:38:27;6.60;;;4.55;;
75261;SDS011;63859;51.064;4.580;2023-06-22T01:40:54;6.90;;;5.10;;
75261;SDS011;63859;51.064;4.580;2023-06-22T01:43:22;7.72;;;4.68;;
75261;SDS011;63859;51.064;4.580;2023-06-22T01:45:51;9.00;;;5.07;;
75261;SDS011;63859;51.064;4.580;2023-06-22T01:48:18;6.35;;;5.13;;
75261;SDS011;63859;51.064;4.580;2023-06-22T01:50:45;6.65;;;4.93;;
75261;SDS011;63859;51.064;4.580;2023-06-22T01:53:11;9.77;;;5.03;;
75261;SDS011;63859;51.064;4.580;2023-06-22T01:55:37;10.27;;;5.22;;
75261;SDS011;63859;51.064;4.580;2023-06-22T01:58:03;6.40;;;5.47;;
75261;SDS011;63859;51.064;4.580;2023-06-22T02:00:29;7.30;;;4.95;;
75261;SDS011;63859;51.064;4.580;2023-06-22T02:05:28;8.95;;;5.70;;
75261;SDS011;63859;51.064;4.580;2023-06-22T02:08:01;8.15;;;5.68;;
75261;SDS011;63859;51.064;4.580;2023-06-22T02:10:34;9.10;;;5.90;;
75261;SDS011;63859;51.064;4.580;2023-06-22T02:13:03;8.05;;;5.80;;
75261;SDS011;63859;51.064;4.580;2023-06-22T02:15:31;10.23;;;6.25;;
75261;SDS011;63859;51.064;4.580;2023-06-22T02:17:57;8.77;;;6.40;;
75261;SDS011;63859;51.064;4.580;2023-06-22T02:20:23;9.93;;;6.63;;
75261;SDS011;63859;51.064;4.580;2023-06-22T02:22:49;7.68;;;5.85;;
75261;SDS011;63859;51.064;4.580;2023-06-22T02:25:15;11.65;;;6.22;;
75261;SDS011;63859;51.064;4.580;2023-06-22T02:27:41;14.05;;;6.70;;
75261;SDS011;63859;51.064;4.580;2023-06-22T02:30:07;10.60;;;6.65;;
75261;SDS011;63859;51.064;4.580;2023-06-22T02:32:34;9.70;;;6.57;;
75261;SDS011;63859;51.064;4.580;2023-06-22T02:35:00;11.15;;;6.50;;
75261;SDS011;63859;51.064;4.580;2023-06-22T02:37:31;10.27;;;6.57;;
75261;SDS011;63859;51.064;4.580;2023-06-22T02:39:57;11.85;;;6.95;;
75261;SDS011;63859;51.064;4.580;2023-06-22T02:42:23;9.52;;;7.18;;
75261;SDS011;63859;51.064;4.580;2023-06-22T02:44:48;10.90;;;7.00;;
75261;SDS011;63859;51.064;4.580;2023-06-22T02:47:14;12.07;;;6.57;;
75261;SDS011;63859;51.064;4.580;2023-06-22T02:49:40;10.00;;;6.78;;
75261;SDS011;63859;51.064;4.580;2023-06-22T02:52:06;11.93;;;6.90;;
75261;SDS011;63859;51.064;4.580;2023-06-22T02:54:32;10.07;;;6.85;;
75261;SDS011;63859;51.064;4.580;2023-06-22T02:56:58;10.27;;;7.03;;
75261;SDS011;63859;51.064;4.580;2023-06-22T02:59:27;11.15;;;7.55;;
75261;SDS011;63859;51.064;4.580;2023-06-22T03:01:53;9.35;;;7.00;;
75261;SDS011;63859;51.064;4.580;2023-06-22T03:04:19;11.23;;;7.60;;
75261;SDS011;63859;51.064;4.580;2023-06-22T03:06:44;13.15;;;7.95;;
75261;SDS011;63859;51.064;4.580;2023-06-22T03:09:15;13.30;;;8.30;;
75261;SDS011;63859;51.064;4.580;2023-06-22T03:11:42;14.27;;;8.32;;
75261;SDS011;63859;51.064;4.580;2023-06-22T03:14:08;10.57;;;7.82;;
75261;SDS011;63859;51.064;4.580;2023-06-22T03:16:33;12.40;;;8.25;;
75261;SDS011;63859;51.064;4.580;2023-06-22T03:18:59;12.82;;;8.02;;
75261;SDS011;63859;51.064;4.580;2023-06-22T03:21:27;12.75;;;7.68;;
75261;SDS011;63859;51.064;4.580;2023-06-22T03:23:53;10.75;;;8.02;;
75261;SDS011;63859;51.064;4.580;2023-06-22T03:26:19;16.05;;;8.93;;
75261;SDS011;63859;51.064;4.580;2023-06-22T03:28:45;11.52;;;8.23;;
75261;SDS011;63859;51.064;4.580;2023-06-22T03:31:11;12.30;;;8.48;;
75261;SDS011;63859;51.064;4.580;2023-06-22T03:33:36;12.77;;;7.82;;
75261;SDS011;63859;51.064;4.580;2023-06-22T03:36:02;14.35;;;8.35;;
75261;SDS011;63859;51.064;4.580;2023-06-22T03:38:28;13.55;;;8.70;;
75261;SDS011;63859;51.064;4.580;2023-06-22T03:40:54;11.10;;;8.32;;
75261;SDS011;63859;51.064;4.580;2023-06-22T03:43:19;15.68;;;9.02;;
75261;SDS011;63859;51.064;4.580;2023-06-22T03:45:45;13.73;;;8.85;;
75261;SDS011;63859;51.064;4.580;2023-06-22T03:48:11;16.25;;;9.43;;
75261;SDS011;63859;51.064;4.580;2023-06-22T03:50:37;19.15;;;9.15;;
75261;SDS011;63859;51.064;4.580;2023-06-22T03:53:03;12.80;;;9.18;;
75261;SDS011;63859;51.064;4.580;2023-06-22T03:55:29;14.88;;;9.50;;
75261;SDS011;63859;51.064;4.580;2023-06-22T03:57:55;15.80;;;9.80;;
75261;SDS011;63859;51.064;4.580;2023-06-22T04:00:22;14.10;;;9.25;;
75261;SDS011;63859;51.064;4.580;2023-06-22T04:02:48;13.73;;;9.48;;
75261;SDS011;63859;51.064;4.580;2023-06-22T04:05:14;15.95;;;9.98;;
75261;SDS011;63859;51.064;4.580;2023-06-22T04:07:40;15.23;;;10.27;;
75261;SDS011;63859;51.064;4.580;2023-06-22T04:10:06;13.65;;;10.35;;
75261;SDS011;63859;51.064;4.580;2023-06-22T04:12:32;15.70;;;9.88;;
75261;SDS011;63859;51.064;4.580;2023-06-22T04:14:59;13.32;;;9.45;;
75261;SDS011;63859;51.064;4.580;2023-06-22T04:17:24;14.45;;;9.85;;
75261;SDS011;63859;51.064;4.580;2023-06-22T04:19:50;14.52;;;10.68;;
75261;SDS011;63859;51.064;4.580;2023-06-22T04:22:16;14.13;;;9.82;;
75261;SDS011;63859;51.064;4.580;2023-06-22T04:24:42;14.85;;;10.60;;
75261;SDS011;63859;51.064;4.580;2023-06-22T04:27:09;13.48;;;10.82;;
75261;SDS011;63859;51.064;4.580;2023-06-22T04:29:34;15.43;;;10.10;;
75261;SDS011;63859;51.064;4.580;2023-06-22T04:32:00;16.92;;;10.80;;
75261;SDS011;63859;51.064;4.580;2023-06-22T04:34:30;16.75;;;11.27;;
75261;SDS011;63859;51.064;4.580;2023-06-22T04:36:56;19.55;;;11.43;;
75261;SDS011;63859;51.064;4.580;2023-06-22T04:39:22;16.35;;;10.82;;
75261;SDS011;63859;51.064;4.580;2023-06-22T04:41:48;15.10;;;10.45;;
75261;SDS011;63859;51.064;4.580;2023-06-22T04:44:16;16.73;;;10.95;;
75261;SDS011;63859;51.064;4.580;2023-06-22T04:46:56;16.75;;;10.90;;
75261;SDS011;63859;51.064;4.580;2023-06-22T04:49:27;16.95;;;11.77;;
75261;SDS011;63859;51.064;4.580;2023-06-22T04:51:59;14.95;;;11.50;;
75261;SDS011;63859;51.064;4.580;2023-06-22T04:54:26;19.20;;;11.77;;
75261;SDS011;63859;51.064;4.580;2023-06-22T04:56:51;17.42;;;11.57;;
75261;SDS011;63859;51.064;4.580;2023-06-22T04:59:23;15.73;;;11.52;;
75261;SDS011;63859;51.064;4.580;2023-06-22T05:01:56;20.02;;;12.55;;
75261;SDS011;63859;51.064;4.580;2023-06-22T05:04:23;15.77;;;11.85;;
75261;SDS011;63859;51.064;4.580;2023-06-22T05:06:49;16.30;;;11.82;;
75261;SDS011;63859;51.064;4.580;2023-06-22T05:09:15;15.00;;;11.82;;
75261;SDS011;63859;51.064;4.580;2023-06-22T05:11:42;18.23;;;11.93;;
75261;SDS011;63859;51.064;4.580;2023-06-22T05:14:08;16.25;;;12.38;;
75261;SDS011;63859;51.064;4.580;2023-06-22T05:16:34;17.58;;;13.18;;
75261;SDS011;63859;51.064;4.580;2023-06-22T05:19:01;20.67;;;12.80;;
75261;SDS011;63859;51.064;4.580;2023-06-22T05:21:28;16.27;;;12.15;;
75261;SDS011;63859;51.064;4.580;2023-06-22T05:23:55;16.27;;;12.07;;
75261;SDS011;63859;51.064;4.580;2023-06-22T05:26:25;17.60;;;12.10;;
75261;SDS011;63859;51.064;4.580;2023-06-22T05:28:51;17.80;;;12.10;;
75261;SDS011;63859;51.064;4.580;2023-06-22T05:31:18;39.17;;;13.85;;
75261;SDS011;63859;51.064;4.580;2023-06-22T05:33:47;21.00;;;13.15;;
75261;SDS011;63859;51.064;4.580;2023-06-22T05:36:14;19.17;;;13.65;;
75261;SDS011;63859;51.064;4.580;2023-06-22T05:38:41;18.55;;;13.07;;
75261;SDS011;63859;51.064;4.580;2023-06-22T05:41:07;19.35;;;12.85;;
75261;SDS011;63859;51.064;4.580;2023-06-22T05:43:33;20.80;;;13.40;;
75261;SDS011;63859;51.064;4.580;2023-06-22T05:46:03;18.08;;;13.35;;
75261;SDS011;63859;51.064;4.580;2023-06-22T05:48:29;23.77;;;13.15;;
75261;SDS011;63859;51.064;4.580;2023-06-22T05:50:55;25.27;;;14.40;;
75261;SDS011;63859;51.064;4.580;2023-06-22T05:53:21;19.10;;;13.23;;
75261;SDS011;63859;51.064;4.580;2023-06-22T05:55:46;21.08;;;13.98;;
75261;SDS011;63859;51.064;4.580;2023-06-22T05:58:12;19.92;;;12.73;;
75261;SDS011;63859;51.064;4.580;2023-06-22T06:00:40;18.70;;;14.07;;
75261;SDS011;63859;51.064;4.580;2023-06-22T06:03:08;20.30;;;14.25;;
75261;SDS011;63859;51.064;4.580;2023-06-22T06:05:35;19.15;;;13.73;;
75261;SDS011;63859;51.064;4.580;2023-06-22T06:08:01;19.52;;;14.60;;
75261;SDS011;63859;51.064;4.580;2023-06-22T06:10:29;20.88;;;13.98;;
75261;SDS011;63859;51.064;4.580;2023-06-22T06:12:55;19.83;;;14.23;;
75261;SDS011;63859;51.064;4.580;2023-06-22T06:15:21;20.83;;;14.63;;
75261;SDS011;63859;51.064;4.580;2023-06-22T06:17:48;25.42;;;15.13;;
75261;SDS011;63859;51.064;4.580;2023-06-22T06:20:15;26.08;;;14.50;;
75261;SDS011;63859;51.064;4.580;2023-06-22T06:22:43;21.50;;;14.65;;
75261;SDS011;63859;51.064;4.580;2023-06-22T06:25:09;26.70;;;15.30;;
75261;SDS011;63859;51.064;4.580;2023-06-22T06:27:40;19.30;;;14.77;;
75261;SDS011;63859;51.064;4.580;2023-06-22T06:30:10;21.55;;;15.30;;
75261;SDS011;63859;51.064;4.580;2023-06-22T06:32:37;23.58;;;15.40;;
75261;SDS011;63859;51.064;4.580;2023-06-22T06:35:04;20.02;;;15.20;;
75261;SDS011;63859;51.064;4.580;2023-06-22T06:37:38;21.27;;;15.73;;
75261;SDS011;63859;51.064;4.580;2023-06-22T06:40:08;21.20;;;15.60;;
75261;SDS011;63859;51.064;4.580;2023-06-22T06:43:09;24.83;;;15.82;;
75261;SDS011;63859;51.064;4.580;2023-06-22T06:45:27;23.25;;;15.52;;
75261;SDS011;63859;51.064;4.580;2023-06-22T06:47:54;22.23;;;16.10;;
75261;SDS011;63859;51.064;4.580;2023-06-22T06:50:19;25.40;;;16.17;;
75261;SDS011;63859;51.064;4.580;2023-06-22T06:52:45;25.58;;;16.58;;
75261;SDS011;63859;51.064;4.580;2023-06-22T06:55:11;23.67;;;16.73;;
75261;SDS011;63859;51.064;4.580;2023-06-22T06:57:40;23.63;;;15.80;;
75261;SDS011;63859;51.064;4.580;2023-06-22T07:00:07;26.92;;;17.08;;
75261;SDS011;63859;51.064;4.580;2023-06-22T07:02:37;21.00;;;16.17;;
75261;SDS011;63859;51.064;4.580;2023-06-22T07:05:04;27.05;;;16.95;;
75261;SDS011;63859;51.064;4.580;2023-06-22T07:07:30;27.30;;;16.38;;
75261;SDS011;63859;51.064;4.580;2023-06-22T07:09:56;24.30;;;16.30;;
75261;SDS011;63859;51.064;4.580;2023-06-22T07:12:22;26.83;;;17.23;;
75261;SDS011;63859;51.064;4.580;2023-06-22T07:14:47;23.75;;;16.55;;
75261;SDS011;63859;51.064;4.580;2023-06-22T07:17:13;22.63;;;16.50;;
75261;SDS011;63859;51.064;4.580;2023-06-22T07:19:39;24.83;;;18.23;;
75261;SDS011;63859;51.064;4.580;2023-06-22T07:22:05;26.15;;;16.40;;
75261;SDS011;63859;51.064;4.580;2023-06-22T07:24:30;26.58;;;17.05;;
75261;SDS011;63859;51.064;4.580;2023-06-22T07:26:57;28.27;;;17.33;;
75261;SDS011;63859;51.064;4.580;2023-06-22T07:29:24;25.75;;;16.85;;
75261;SDS011;63859;51.064;4.580;2023-06-22T07:31:51;23.95;;;16.77;;
75261;SDS011;63859;51.064;4.580;2023-06-22T07:34:17;27.15;;;17.08;;
75261;SDS011;63859;51.064;4.580;2023-06-22T07:36:43;21.05;;;16.55;;
75261;SDS011;63859;51.064;4.580;2023-06-22T07:39:09;23.80;;;16.40;;
75261;SDS011;63859;51.064;4.580;2023-06-22T07:41:35;20.05;;;16.02;;
75261;SDS011;63859;51.064;4.580;2023-06-22T07:44:01;22.27;;;16.17;;
75261;SDS011;63859;51.064;4.580;2023-06-22T07:46:27;21.83;;;15.73;;
75261;SDS011;63859;51.064;4.580;2023-06-22T07:48:55;18.67;;;16.00;;
75261;SDS011;63859;51.064;4.580;2023-06-22T07:51:21;22.15;;;15.23;;
75261;SDS011;63859;51.064;4.580;2023-06-22T07:53:47;24.08;;;16.52;;
75261;SDS011;63859;51.064;4.580;2023-06-22T07:56:13;19.88;;;15.10;;
75261;SDS011;63859;51.064;4.580;2023-06-22T07:58:43;22.60;;;15.13;;
75261;SDS011;63859;51.064;4.580;2023-06-22T08:01:09;19.83;;;14.52;;
75261;SDS011;63859;51.064;4.580;2023-06-22T08:03:36;19.00;;;14.48;;
75261;SDS011;63859;51.064;4.580;2023-06-22T08:06:01;21.75;;;14.25;;
75261;SDS011;63859;51.064;4.580;2023-06-22T08:08:27;17.40;;;13.85;;
75261;SDS011;63859;51.064;4.580;2023-06-22T08:10:53;20.27;;;13.65;;
75261;SDS011;63859;51.064;4.580;2023-06-22T08:13:19;19.98;;;12.85;;
75261;SDS011;63859;51.064;4.580;2023-06-22T08:15:44;17.13;;;13.10;;
75261;SDS011;63859;51.064;4.580;2023-06-22T08:18:10;18.52;;;12.48;;
75261;SDS011;63859;51.064;4.580;2023-06-22T08:20:35;17.63;;;12.45;;
75261;SDS011;63859;51.064;4.580;2023-06-22T08:23:01;15.02;;;11.43;;
75261;SDS011;63859;51.064;4.580;2023-06-22T08:25:31;17.52;;;13.05;;
75261;SDS011;63859;51.064;4.580;2023-06-22T08:27:57;18.25;;;12.95;;
75261;SDS011;63859;51.064;4.580;2023-06-22T08:30:23;15.98;;;12.57;;
75261;SDS011;63859;51.064;4.580;2023-06-22T08:32:49;15.82;;;12.10;;
75261;SDS011;63859;51.064;4.580;2023-06-22T08:35:14;17.52;;;11.68;;
75261;SDS011;63859;51.064;4.580;2023-06-22T08:37:40;19.30;;;12.40;;
75261;SDS011;63859;51.064;4.580;2023-06-22T08:40:07;21.85;;;12.82;;
75261;SDS011;63859;51.064;4.580;2023-06-22T08:42:34;15.23;;;11.45;;
75261;SDS011;63859;51.064;4.580;2023-06-22T08:45:05;23.98;;;12.45;;
75261;SDS011;63859;51.064;4.580;2023-06-22T08:47:31;15.95;;;11.25;;
75261;SDS011;63859;51.064;4.580;2023-06-22T08:49:57;16.73;;;11.68;;
75261;SDS011;63859;51.064;4.580;2023-06-22T08:52:23;18.45;;;11.38;;
75261;SDS011;63859;51.064;4.580;2023-06-22T08:54:49;17.25;;;11.45;;
75261;SDS011;63859;51.064;4.580;2023-06-22T08:57:15;19.90;;;12.75;;
75261;SDS011;63859;51.064;4.580;2023-06-22T08:59:41;16.30;;;12.50;;
75261;SDS011;63859;51.064;4.580;2023-06-22T09:02:07;16.05;;;12.20;;
75261;SDS011;63859;51.064;4.580;2023-06-22T09:04:32;20.00;;;12.32;;
75261;SDS011;63859;51.064;4.580;2023-06-22T09:06:59;18.45;;;12.52;;
75261;SDS011;63859;51.064;4.580;2023-06-22T09:09:28;15.18;;;11.32;;
75261;SDS011;63859;51.064;4.580;2023-06-22T09:11:54;15.82;;;11.63;;
75261;SDS011;63859;51.064;4.580;2023-06-22T09:14:19;14.85;;;11.05;;
75261;SDS011;63859;51.064;4.580;2023-06-22T09:16:45;13.85;;;10.73;;
75261;SDS011;63859;51.064;4.580;2023-06-22T09:19:11;17.65;;;10.75;;
75261;SDS011;63859;51.064;4.580;2023-06-22T09:21:37;16.65;;;10.95;;
75261;SDS011;63859;51.064;4.580;2023-06-22T09:24:02;14.95;;;11.15;;
75261;SDS011;63859;51.064;4.580;2023-06-22T09:26:28;16.73;;;10.50;;
75261;SDS011;63859;51.064;4.580;2023-06-22T09:28:54;16.23;;;11.35;;
75261;SDS011;63859;51.064;4.580;2023-06-22T09:31:20;17.92;;;11.98;;
75261;SDS011;63859;51.064;4.580;2023-06-22T09:33:52;18.13;;;11.70;;
75261;SDS011;63859;51.064;4.580;2023-06-22T09:36:19;21.60;;;12.27;;
75261;SDS011;63859;51.064;4.580;2023-06-22T09:38:48;23.33;;;12.07;;
75261;SDS011;63859;51.064;4.580;2023-06-22T09:41:20;21.92;;;15.63;;
75261;SDS011;63859;51.064;4.580;2023-06-22T09:43:45;25.08;;;16.20;;
75261;SDS011;63859;51.064;4.580;2023-06-22T09:46:13;22.17;;;14.95;;
75261;SDS011;63859;51.064;4.580;2023-06-22T09:48:40;21.95;;;15.80;;
75261;SDS011;63859;51.064;4.580;2023-06-22T09:51:05;22.50;;;15.52;;
75261;SDS011;63859;51.064;4.580;2023-06-22T09:53:31;27.30;;;18.30;;
75261;SDS011;63859;51.064;4.580;2023-06-22T09:55:57;22.15;;;15.48;;
75261;SDS011;63859;51.064;4.580;2023-06-22T09:58:22;20.52;;;15.48;;
75261;SDS011;63859;51.064;4.580;2023-06-22T10:00:48;24.73;;;17.05;;
75261;SDS011;63859;51.064;4.580;2023-06-22T10:03:14;23.73;;;15.50;;
75261;SDS011;63859;51.064;4.580;2023-06-22T10:05:39;31.30;;;17.90;;
75261;SDS011;63859;51.064;4.580;2023-06-22T10:08:05;35.83;;;20.35;;
75261;SDS011;63859;51.064;4.580;2023-06-22T10:10:32;30.33;;;19.10;;
75261;SDS011;63859;51.064;4.580;2023-06-22T10:13:02;29.75;;;19.95;;
75261;SDS011;63859;51.064;4.580;2023-06-22T10:15:34;28.45;;;19.55;;
75261;SDS011;63859;51.064;4.580;2023-06-22T10:17:59;27.58;;;19.55;;
75261;SDS011;63859;51.064;4.580;2023-06-22T10:20:25;34.70;;;20.55;;
75261;SDS011;63859;51.064;4.580;2023-06-22T10:22:51;31.02;;;21.75;;
75261;SDS011;63859;51.064;4.580;2023-06-22T10:25:17;33.30;;;23.70;;
75261;SDS011;63859;51.064;4.580;2023-06-22T10:27:42;28.42;;;21.50;;
75261;SDS011;63859;51.064;4.580;2023-06-22T10:30:09;29.33;;;21.88;;
75261;SDS011;63859;51.064;4.580;2023-06-22T10:32:37;34.10;;;22.27;;
75261;SDS011;63859;51.064;4.580;2023-06-22T10:35:03;31.83;;;22.55;;
75261;SDS011;63859;51.064;4.580;2023-06-22T10:37:29;30.52;;;22.92;;
75261;SDS011;63859;51.064;4.580;2023-06-22T10:39:55;33.08;;;23.45;;
75261;SDS011;63859;51.064;4.580;2023-06-22T10:42:20;31.30;;;23.52;;
75261;SDS011;63859;51.064;4.580;2023-06-22T10:44:46;34.28;;;24.00;;
75261;SDS011;63859;51.064;4.580;2023-06-22T10:47:12;38.53;;;25.50;;
75261;SDS011;63859;51.064;4.580;2023-06-22T10:49:38;40.17;;;26.15;;
75261;SDS011;63859;51.064;4.580;2023-06-22T10:52:04;32.95;;;24.75;;
75261;SDS011;63859;51.064;4.580;2023-06-22T10:54:33;38.72;;;26.65;;
75261;SDS011;63859;51.064;4.580;2023-06-22T10:57:00;34.35;;;25.48;;
75261;SDS011;63859;51.064;4.580;2023-06-22T10:59:26;39.92;;;26.42;;
75261;SDS011;63859;51.064;4.580;2023-06-22T11:01:53;39.55;;;25.88;;
75261;SDS011;63859;51.064;4.580;2023-06-22T11:04:20;35.90;;;23.48;;
75261;SDS011;63859;51.064;4.580;2023-06-22T11:06:46;30.27;;;23.17;;
75261;SDS011;63859;51.064;4.580;2023-06-22T11:09:12;29.38;;;21.73;;
75261;SDS011;63859;51.064;4.580;2023-06-22T11:11:43;29.15;;;21.20;;
75261;SDS011;63859;51.064;4.580;2023-06-22T11:14:09;29.90;;;21.92;;
75261;SDS011;63859;51.064;4.580;2023-06-22T11:16:34;30.25;;;21.08;;
75261;SDS011;63859;51.064;4.580;2023-06-22T11:19:00;28.17;;;20.13;;
75261;SDS011;63859;51.064;4.580;2023-06-22T11:21:26;30.08;;;19.60;;
75261;SDS011;63859;51.064;4.580;2023-06-22T11:23:51;29.42;;;20.33;;
75261;SDS011;63859;51.064;4.580;2023-06-22T11:26:17;27.25;;;18.75;;
75261;SDS011;63859;51.064;4.580;2023-06-22T11:28:43;24.77;;;18.23;;
75261;SDS011;63859;51.064;4.580;2023-06-22T11:31:08;27.02;;;19.08;;
75261;SDS011;63859;51.064;4.580;2023-06-22T11:33:34;29.17;;;19.80;;
75261;SDS011;63859;51.064;4.580;2023-06-22T11:35:59;27.13;;;20.13;;
75261;SDS011;63859;51.064;4.580;2023-06-22T11:38:25;27.63;;;19.63;;
75261;SDS011;63859;51.064;4.580;2023-06-22T11:40:51;29.40;;;19.65;;
75261;SDS011;63859;51.064;4.580;2023-06-22T11:43:16;27.50;;;21.60;;
75261;SDS011;63859;51.064;4.580;2023-06-22T11:45:42;30.70;;;22.13;;
75261;SDS011;63859;51.064;4.580;2023-06-22T11:48:08;28.50;;;19.70;;
75261;SDS011;63859;51.064;4.580;2023-06-22T11:50:33;30.15;;;22.25;;
75261;SDS011;63859;51.064;4.580;2023-06-22T11:53:01;30.75;;;22.70;;
75261;SDS011;63859;51.064;4.580;2023-06-22T11:55:28;31.88;;;22.80;;
75261;SDS011;63859;51.064;4.580;2023-06-22T11:57:57;32.88;;;23.30;;
75261;SDS011;63859;51.064;4.580;2023-06-22T12:00:28;36.47;;;24.13;;
75261;SDS011;63859;51.064;4.580;2023-06-22T12:02:54;31.63;;;23.98;;
75261;SDS011;63859;51.064;4.580;2023-06-22T12:05:21;32.83;;;25.42;;
75261;SDS011;63859;51.064;4.580;2023-06-22T12:07:49;35.78;;;26.45;;
75261;SDS011;63859;51.064;4.580;2023-06-22T12:10:14;40.35;;;26.50;;
75261;SDS011;63859;51.064;4.580;2023-06-22T12:12:40;34.08;;;24.95;;
75261;SDS011;63859;51.064;4.580;2023-06-22T12:15:07;38.55;;;27.52;;
75261;SDS011;63859;51.064;4.580;2023-06-22T12:17:33;41.40;;;27.45;;
75261;SDS011;63859;51.064;4.580;2023-06-22T12:19:59;42.92;;;28.75;;
75261;SDS011;63859;51.064;4.580;2023-06-22T12:22:25;38.25;;;27.95;;
75261;SDS011;63859;51.064;4.580;2023-06-22T12:24:51;38.65;;;28.55;;
75261;SDS011;63859;51.064;4.580;2023-06-22T12:27:17;39.13;;;27.90;;
75261;SDS011;63859;51.064;4.580;2023-06-22T12:29:43;41.38;;;30.08;;
75261;SDS011;63859;51.064;4.580;2023-06-22T12:32:12;40.13;;;28.90;;
75261;SDS011;63859;51.064;4.580;2023-06-22T12:34:38;38.67;;;28.98;;
75261;SDS011;63859;51.064;4.580;2023-06-22T12:37:04;41.25;;;30.05;;
75261;SDS011;63859;51.064;4.580;2023-06-22T12:39:33;41.00;;;29.58;;
75261;SDS011;63859;51.064;4.580;2023-06-22T12:41:59;43.08;;;29.33;;
75261;SDS011;63859;51.064;4.580;2023-06-22T12:44:24;39.17;;;28.90;;
75261;SDS011;63859;51.064;4.580;2023-06-22T12:46:50;37.45;;;28.40;;
75261;SDS011;63859;51.064;4.580;2023-06-22T12:49:16;39.42;;;29.42;;
75261;SDS011;63859;51.064;4.580;2023-06-22T12:51:42;39.47;;;29.23;;
75261;SDS011;63859;51.064;4.580;2023-06-22T12:54:08;39.83;;;27.85;;
75261;SDS011;63859;51.064;4.580;2023-06-22T12:56:34;35.92;;;27.70;;
75261;SDS011;63859;51.064;4.580;2023-06-22T12:59:00;36.78;;;27.98;;
75261;SDS011;63859;51.064;4.580;2023-06-22T13:01:29;36.05;;;27.27;;
75261;SDS011;63859;51.064;4.580;2023-06-22T13:03:58;35.53;;;26.65;;
75261;SDS011;63859;51.064;4.580;2023-06-22T13:06:24;38.55;;;27.27;;
75261;SDS011;63859;51.064;4.580;2023-06-22T13:08:50;36.30;;;26.92;;
75261;SDS011;63859;51.064;4.580;2023-06-22T13:11:16;36.28;;;25.58;;
75261;SDS011;63859;51.064;4.580;2023-06-22T13:13:41;32.15;;;25.67;;
75261;SDS011;63859;51.064;4.580;2023-06-22T13:16:08;36.83;;;26.48;;
75261;SDS011;63859;51.064;4.580;2023-06-22T13:18:34;41.08;;;27.05;;
75261;SDS011;63859;51.064;4.580;2023-06-22T13:21:01;40.10;;;27.80;;
75261;SDS011;63859;51.064;4.580;2023-06-22T13:23:27;40.03;;;28.23;;
75261;SDS011;63859;51.064;4.580;2023-06-22T13:25:52;39.97;;;28.30;;
75261;SDS011;63859;51.064;4.580;2023-06-22T13:28:18;37.78;;;27.25;;
75261;SDS011;63859;51.064;4.580;2023-06-22T13:30:45;35.15;;;26.60;;
75261;SDS011;63859;51.064;4.580;2023-06-22T13:33:12;36.08;;;27.77;;
75261;SDS011;63859;51.064;4.580;2023-06-22T13:35:38;39.40;;;28.10;;
75261;SDS011;63859;51.064;4.580;2023-06-22T13:38:04;39.53;;;28.58;;
75261;SDS011;63859;51.064;4.580;2023-06-22T13:40:30;48.20;;;29.77;;
75261;SDS011;63859;51.064;4.580;2023-06-22T13:42:56;41.85;;;30.33;;
75261;SDS011;63859;51.064;4.580;2023-06-22T13:45:22;40.55;;;31.13;;
75261;SDS011;63859;51.064;4.580;2023-06-22T13:47:47;42.13;;;30.90;;
75261;SDS011;63859;51.064;4.580;2023-06-22T13:50:13;44.13;;;32.15;;
75261;SDS011;63859;51.064;4.580;2023-06-22T13:52:39;46.20;;;32.58;;
75261;SDS011;63859;51.064;4.580;2023-06-22T13:55:05;48.63;;;34.60;;
75261;SDS011;63859;51.064;4.580;2023-06-22T13:57:32;47.28;;;33.97;;
75261;SDS011;63859;51.064;4.580;2023-06-22T13:59:58;46.92;;;35.13;;
75261;SDS011;63859;51.064;4.580;2023-06-22T14:02:25;51.58;;;36.30;;
75261;SDS011;63859;51.064;4.580;2023-06-22T14:04:52;50.60;;;36.08;;
75261;SDS011;63859;51.064;4.580;2023-06-22T14:07:18;47.67;;;34.95;;
75261;SDS011;63859;51.064;4.580;2023-06-22T14:09:45;54.28;;;36.03;;
75261;SDS011;63859;51.064;4.580;2023-06-22T14:12:11;56.05;;;36.90;;
75261;SDS011;63859;51.064;4.580;2023-06-22T14:14:37;56.08;;;37.35;;
75261;SDS011;63859;51.064;4.580;2023-06-22T14:17:03;53.35;;;36.15;;
75261;SDS011;63859;51.064;4.580;2023-06-22T14:19:29;49.80;;;36.45;;
75261;SDS011;63859;51.064;4.580;2023-06-22T14:21:55;54.00;;;37.70;;
75261;SDS011;63859;51.064;4.580;2023-06-22T14:24:21;55.92;;;38.05;;
75261;SDS011;63859;51.064;4.580;2023-06-22T14:26:48;56.45;;;37.80;;
75261;SDS011;63859;51.064;4.580;2023-06-22T14:29:13;54.60;;;38.50;;
75261;SDS011;63859;51.064;4.580;2023-06-22T14:31:39;54.08;;;36.67;;
75261;SDS011;63859;51.064;4.580;2023-06-22T14:34:05;55.15;;;38.15;;